createdAt,value
2022-09-15T09:15:26.746Z,12.50
2022-09-15T09:18:38.791Z,13.10
2022-09-15T09:21:23.853Z,14.07
2022-09-15T09:24:26.008Z,15.72
2022-09-15T09:26:58.112Z,17.17
2022-09-15T09:29:32.976Z,14.80
2022-09-15T09:32:12.272Z,15.90
2022-09-15T09:35:08.923Z,18.42
2022-09-15T09:37:37.783Z,17.12
2022-09-15T09:40:07.462Z,17.00
2022-09-15T09:42:42.840Z,17.60
2022-09-15T09:45:16.268Z,16.02
2022-09-15T09:47:46.482Z,15.10
2022-09-15T09:53:22.268Z,15.28
2022-09-15T09:55:51.115Z,15.15
2022-09-15T09:58:28.808Z,13.78
2022-09-15T10:00:59.149Z,13.88
2022-09-15T10:03:32.687Z,13.65
2022-09-15T10:08:38.399Z,13.28
2022-09-15T10:11:10.397Z,14.30
2022-09-15T10:13:42.481Z,12.93
2022-09-15T10:16:11.850Z,14.65
2022-09-15T10:18:40.952Z,15.35
2022-09-15T10:21:11.367Z,16.77
2022-09-15T10:23:40.063Z,12.23
2022-09-15T10:26:20.951Z,11.88
2022-09-15T10:29:12.851Z,10.88
2022-09-15T10:31:45.155Z,11.05
2022-09-15T10:34:31.483Z,11.43
2022-09-15T10:37:15.096Z,10.68
2022-09-15T10:39:52.801Z,10.90
2022-09-15T10:42:37.103Z,9.70
2022-09-15T10:45:14.207Z,11.18
2022-09-15T10:48:08.415Z,7.90
2022-09-15T10:51:00.402Z,7.25
2022-09-15T10:53:34.944Z,7.05
2022-09-15T10:59:56.352Z,9.10
2022-09-15T11:03:03.567Z,7.30
2022-09-15T11:05:48.815Z,6.75
2022-09-15T11:08:38.563Z,8.83
2022-09-15T11:11:22.383Z,11.03
2022-09-15T11:14:12.215Z,11.40
2022-09-15T11:17:22.479Z,10.93
2022-09-15T11:20:03.339Z,10.45
2022-09-15T11:22:35.447Z,9.70
2022-09-15T11:25:13.296Z,8.85
2022-09-15T11:27:44.009Z,10.72
2022-09-15T11:30:17.768Z,9.50
2022-09-15T11:32:57.896Z,8.33
2022-09-15T11:35:39.560Z,9.80
2022-09-15T11:38:29.172Z,11.00
2022-09-15T11:41:06.443Z,8.53
2022-09-15T11:47:08.047Z,9.55
2022-09-15T11:49:48.472Z,8.65
2022-09-15T11:52:45.039Z,11.40
2022-09-15T11:55:34.911Z,20.50
2022-09-15T11:58:06.968Z,10.40
2022-09-15T12:00:37.391Z,9.50
2022-09-15T12:03:24.143Z,8.05
2022-09-15T12:06:08.022Z,6.83
2022-09-15T12:08:46.057Z,6.08
2022-09-15T12:11:17.831Z,4.50
2022-09-15T12:13:47.216Z,7.83
2022-09-15T12:16:17.251Z,5.15
2022-09-15T12:19:08.580Z,4.40
2022-09-15T12:21:40.752Z,4.17
2022-09-15T12:24:34.137Z,5.92
2022-09-15T12:27:03.394Z,5.83
2022-09-15T12:29:42.101Z,4.40
2022-09-15T12:32:29.915Z,8.45
2022-09-15T12:35:04.442Z,5.50
2022-09-15T12:37:47.543Z,4.75
2022-09-15T12:40:38.113Z,6.60
2022-09-15T12:43:16.513Z,4.55
2022-09-15T12:45:57.458Z,4.40
2022-09-15T12:48:31.980Z,4.55
2022-09-15T12:51:10.559Z,4.42
2022-09-15T12:53:44.533Z,4.03
2022-09-15T12:56:16.312Z,7.33
2022-09-15T12:58:49.555Z,4.72
2022-09-15T13:01:27.447Z,4.60
2022-09-15T13:04:02.225Z,4.78
2022-09-15T13:06:34.947Z,5.00
2022-09-15T13:09:09.951Z,9.25
2022-09-15T13:11:40.939Z,7.20
2022-09-15T13:14:30.529Z,5.55
2022-09-15T13:17:23.287Z,6.58
2022-09-15T13:20:15.289Z,8.00
2022-09-15T13:23:03.825Z,6.58
2022-09-15T13:25:52.984Z,8.78
2022-09-15T13:28:40.783Z,5.42
2022-09-15T13:31:39.191Z,5.67
2022-09-15T13:35:15.609Z,7.15
2022-09-15T13:38:22.680Z,6.37
2022-09-15T13:40:50.585Z,5.95
2022-09-15T13:43:59.024Z,9.63
2022-09-15T13:47:15.400Z,7.78
2022-09-15T13:50:15.352Z,9.78
2022-09-15T13:53:05.916Z,6.78
2022-09-15T13:55:55.612Z,7.25
2022-09-15T13:59:04.564Z,5.78
2022-09-15T14:01:15.455Z,10.23
2022-09-15T14:03:50.303Z,8.43
2022-09-15T14:06:31.241Z,7.03
2022-09-15T14:09:04.359Z,7.78
2022-09-15T14:11:34.971Z,7.10
2022-09-15T14:14:04.032Z,6.53
2022-09-15T14:16:39.203Z,12.33
2022-09-15T14:22:31.392Z,6.85
2022-09-15T14:25:03.160Z,6.78
2022-09-15T14:27:34.488Z,5.87
2022-09-15T14:30:08.656Z,5.08
2022-09-15T14:32:40.105Z,5.53
2022-09-15T14:35:13.857Z,6.50
2022-09-15T14:38:01.031Z,7.30
2022-09-15T14:40:38.074Z,6.00
2022-09-15T14:43:39.307Z,8.15
2022-09-15T14:46:13.886Z,6.40
2022-09-15T14:48:43.718Z,8.63
2022-09-15T14:51:18.800Z,6.03
2022-09-15T14:53:49.951Z,7.40
2022-09-15T14:56:23.935Z,7.17
2022-09-15T14:59:01.831Z,8.58
2022-09-15T15:01:45.640Z,10.48
2022-09-15T15:04:26.281Z,7.87
2022-09-15T15:07:03.904Z,6.90
2022-09-15T15:12:38.680Z,8.48
2022-09-15T15:15:10.192Z,7.08
2022-09-15T15:17:51.196Z,9.38
2022-09-15T15:20:28.401Z,7.15
2022-09-15T15:23:18.591Z,7.75
2022-09-15T15:25:47.736Z,9.15
2022-09-15T15:28:38.776Z,9.33
2022-09-15T15:31:19.192Z,9.05
2022-09-15T15:33:50.377Z,9.93
2022-09-15T15:36:29.390Z,10.93
2022-09-15T15:42:06.160Z,10.25
2022-09-15T15:45:12.504Z,11.28
2022-09-15T15:48:01.886Z,10.08
2022-09-15T15:50:49.936Z,12.40
2022-09-15T15:53:40.335Z,12.13
2022-09-15T15:56:27.943Z,7.42
2022-09-15T15:59:17.330Z,14.45
2022-09-15T16:02:07.106Z,11.70
2022-09-15T16:04:55.136Z,9.53
2022-09-15T16:07:43.088Z,9.70
2022-09-15T16:10:34.082Z,7.83
2022-09-15T16:13:23.752Z,8.10
2022-09-15T16:16:17.095Z,9.65
2022-09-15T16:19:04.891Z,9.68
2022-09-15T16:21:52.335Z,9.50
2022-09-15T16:24:40.008Z,13.50
2022-09-15T16:27:29.194Z,9.58
2022-09-15T16:30:16.327Z,10.82
2022-09-15T16:33:05.547Z,14.87
2022-09-15T16:35:59.553Z,11.05
2022-09-15T16:38:47.025Z,13.20
2022-09-15T16:41:39.019Z,9.75
2022-09-15T16:44:23.370Z,13.35
2022-09-15T16:47:12.831Z,10.60
2022-09-15T16:49:59.958Z,11.30
2022-09-15T16:52:46.928Z,13.90
2022-09-15T16:55:51.512Z,13.40
2022-09-15T16:58:40.463Z,17.32
2022-09-15T17:01:27.566Z,16.05
2022-09-15T17:04:16.968Z,12.35
2022-09-15T17:07:04.639Z,13.87
2022-09-15T17:09:53.169Z,12.93
2022-09-15T17:12:42.024Z,15.08
2022-09-15T17:15:49.013Z,18.15
2022-09-15T17:18:36.609Z,14.53
2022-09-15T17:21:25.478Z,15.93
2022-09-15T17:24:13.387Z,15.70
2022-09-15T17:27:00.850Z,11.88
2022-09-15T17:29:47.883Z,13.75
2022-09-15T17:32:35.631Z,14.63
2022-09-15T17:35:26.005Z,15.98
2022-09-15T17:38:13.760Z,18.07
2022-09-15T17:41:01.589Z,12.70
2022-09-15T17:43:50.105Z,12.55
2022-09-15T17:46:37.958Z,12.80
2022-09-15T17:49:25.120Z,13.48
2022-09-15T17:52:12.585Z,12.25
2022-09-15T17:55:01.779Z,11.95
2022-09-15T17:57:50.271Z,16.75
2022-09-15T18:00:39.799Z,17.92
2022-09-15T18:03:29.120Z,14.00
2022-09-15T18:06:16.784Z,16.37
2022-09-15T18:09:04.178Z,13.90
2022-09-15T18:11:51.840Z,12.43
2022-09-15T18:14:39.499Z,17.30
2022-09-15T18:17:27.553Z,15.65
2022-09-15T18:20:17.676Z,16.97
2022-09-15T18:23:05.160Z,19.77
2022-09-15T18:25:52.608Z,21.07
2022-09-15T18:28:39.960Z,17.55
2022-09-15T18:31:27.264Z,15.38
2022-09-15T18:34:14.696Z,23.20
2022-09-15T18:37:02.802Z,22.02
2022-09-15T18:39:50.227Z,26.95
2022-09-15T18:42:38.337Z,22.62
2022-09-15T18:45:25.615Z,22.02
2022-09-15T18:48:15.864Z,20.32
2022-09-15T18:51:07.814Z,22.77
2022-09-15T18:53:55.119Z,26.23
2022-09-15T18:56:42.568Z,26.60
2022-09-15T18:59:32.657Z,28.62
2022-09-15T19:02:20.024Z,33.23
2022-09-15T19:05:08.379Z,33.60
2022-09-15T19:07:57.065Z,33.20
2022-09-15T19:10:49.191Z,24.40
2022-09-15T19:13:39.640Z,33.18
2022-09-15T19:16:46.665Z,24.32
2022-09-15T19:19:17.879Z,26.17
2022-09-15T19:22:05.239Z,24.35
2022-09-15T19:24:53.231Z,23.60
2022-09-15T19:27:44.497Z,22.32
2022-09-15T19:30:32.338Z,25.90
2022-09-15T19:33:20.330Z,25.17
2022-09-15T19:36:28.368Z,23.80
2022-09-15T19:39:00.547Z,21.23
2022-09-15T19:41:47.801Z,19.15
2022-09-15T19:44:35.777Z,20.12
2022-09-15T19:47:23.467Z,20.10
2022-09-15T19:50:12.399Z,20.88
2022-09-15T19:52:59.853Z,19.45
2022-09-15T19:55:54.114Z,17.35
2022-09-15T19:58:41.479Z,22.15
2022-09-15T20:01:30.740Z,20.10
2022-09-15T20:04:18.359Z,19.85
2022-09-15T20:07:05.791Z,17.35
2022-09-15T20:09:53.670Z,14.47
2022-09-15T20:12:41.328Z,17.15
2022-09-15T20:15:30.447Z,18.55
2022-09-15T20:18:18.383Z,20.62
2022-09-15T20:21:21.754Z,27.15
2022-09-15T20:24:00.839Z,16.30
2022-09-15T20:26:48.304Z,22.05
2022-09-15T20:29:35.977Z,23.18
2022-09-15T20:32:28.141Z,19.07
2022-09-15T20:35:14.415Z,16.62
2022-09-15T20:38:01.424Z,16.87
2022-09-15T20:40:48.881Z,17.40
2022-09-15T20:43:40.209Z,29.95
2022-09-15T20:46:29.295Z,15.95
2022-09-15T20:49:16.953Z,31.20
2022-09-15T20:52:06.164Z,18.73
2022-09-15T20:54:54.199Z,23.27
2022-09-15T20:57:41.935Z,21.50
2022-09-15T21:00:33.673Z,23.73
2022-09-15T21:03:18.320Z,22.27
2022-09-15T21:06:08.401Z,23.12
2022-09-15T21:08:57.818Z,25.52
2022-09-15T21:11:45.152Z,18.82
2022-09-15T21:14:32.224Z,18.70
2022-09-15T21:17:20.039Z,24.18
2022-09-15T21:20:07.567Z,20.35
2022-09-15T21:22:56.107Z,21.00
2022-09-15T21:25:43.599Z,13.03
2022-09-15T21:28:31.817Z,21.20
2022-09-15T21:31:21.590Z,18.48
2022-09-15T21:34:09.671Z,20.60
2022-09-15T21:36:58.008Z,24.10
2022-09-15T21:39:45.377Z,21.95
2022-09-15T21:42:34.602Z,17.48
2022-09-15T21:45:22.203Z,24.70
2022-09-15T21:48:09.496Z,16.60
2022-09-15T21:50:56.791Z,20.35
2022-09-15T21:53:44.543Z,20.40
2022-09-15T21:56:31.992Z,26.55
2022-09-15T21:59:19.439Z,17.70
2022-09-15T22:02:06.854Z,23.80
2022-09-15T22:04:54.752Z,22.17
2022-09-15T22:07:42.120Z,30.97
2022-09-15T22:10:30.439Z,23.02
2022-09-15T22:13:17.958Z,22.13
2022-09-15T22:16:07.915Z,25.17
2022-09-15T22:18:55.815Z,18.90
2022-09-15T22:21:43.267Z,22.15
2022-09-15T22:24:30.862Z,25.32
2022-09-15T22:27:17.927Z,31.85
2022-09-15T22:30:06.398Z,22.37
2022-09-15T22:32:54.272Z,27.07
2022-09-15T22:35:41.575Z,24.25
2022-09-15T22:38:30.680Z,26.62
2022-09-15T22:41:19.431Z,24.05
2022-09-15T22:44:08.287Z,26.02
2022-09-15T22:46:55.696Z,23.18
2022-09-15T22:49:43.082Z,23.50
2022-09-15T22:52:30.671Z,26.90
2022-09-15T22:55:18.969Z,23.10
2022-09-15T22:58:06.682Z,24.77
2022-09-15T23:00:54.126Z,22.25
2022-09-15T23:03:41.824Z,21.60
2022-09-15T23:06:31.902Z,23.10
2022-09-15T23:09:19.216Z,20.62
2022-09-15T23:12:08.130Z,19.23
2022-09-15T23:14:55.679Z,23.27
2022-09-15T23:17:42.904Z,23.55
2022-09-15T23:20:30.104Z,18.85
2022-09-15T23:23:17.411Z,23.18
2022-09-15T23:26:06.061Z,23.50
2022-09-15T23:28:53.568Z,26.02
2022-09-15T23:31:41.250Z,22.50
2022-09-15T23:34:28.648Z,22.10
2022-09-15T23:37:16.120Z,21.12
2022-09-15T23:40:03.572Z,20.30
2022-09-15T23:42:50.936Z,22.87
2022-09-15T23:45:38.896Z,21.82
2022-09-15T23:48:26.242Z,21.85
2022-09-15T23:51:13.600Z,20.32
2022-09-15T23:54:02.394Z,21.37
2022-09-15T23:56:50.055Z,16.82
2022-09-15T23:59:37.288Z,22.98
